createdAt,value
2023-02-22T00:01:08.231Z,101071.84
2023-02-22T00:03:36.193Z,101071.16
2023-02-22T00:06:06.291Z,101071.34
2023-02-22T00:08:37.394Z,101060.16
2023-02-22T00:11:09.035Z,101068.56
2023-02-22T00:13:38.528Z,101056.66
2023-02-22T00:16:07.142Z,101057.75
2023-02-22T00:18:35.305Z,101046.75
2023-02-22T00:21:10.579Z,101050.13
2023-02-22T00:23:46.501Z,101049.28
2023-02-22T00:26:21.072Z,101051.56
2023-02-22T00:28:53.667Z,101045.50
2023-02-22T00:31:22.215Z,101043.84
2023-02-22T00:33:50.178Z,101049.19
2023-02-22T00:36:17.990Z,101042.13
2023-02-22T00:38:45.875Z,101044.22
2023-02-22T00:41:13.797Z,101045.03
2023-02-22T00:43:41.684Z,101046.78
2023-02-22T00:46:09.542Z,101044.66
2023-02-22T00:48:37.528Z,101048.28
2023-02-22T00:51:05.875Z,101046.88
2023-02-22T00:53:33.984Z,101046.50
2023-02-22T00:56:01.839Z,101047.88
2023-02-22T00:58:29.678Z,101057.13
2023-02-22T01:00:57.583Z,101043.22
2023-02-22T01:03:25.492Z,101049.69
2023-02-22T01:05:53.319Z,101047.84
2023-02-22T01:08:21.163Z,101049.59
2023-02-22T01:10:52.510Z,101049.06
2023-02-22T01:13:20.412Z,101044.66
2023-02-22T01:15:48.238Z,101056.13
2023-02-22T01:18:17.254Z,101053.00
2023-02-22T01:20:47.940Z,101047.25
2023-02-22T01:23:17.248Z,101047.28
2023-02-22T01:25:45.212Z,101043.63
2023-02-22T01:28:13.783Z,101046.69
2023-02-22T01:30:41.733Z,101047.19
2023-02-22T01:33:10.398Z,101041.81
2023-02-22T01:35:42.983Z,101041.47
2023-02-22T01:38:10.973Z,101042.06
2023-02-22T01:40:43.665Z,101043.78
2023-02-22T01:43:24.092Z,101041.41
2023-02-22T01:46:20.873Z,101039.91
2023-02-22T01:49:10.259Z,101038.22
2023-02-22T01:51:46.234Z,101033.56
2023-02-22T01:54:31.172Z,101031.81
2023-02-22T01:57:20.361Z,101026.84
2023-02-22T01:59:57.058Z,101032.88
2023-02-22T02:02:26.512Z,101029.19
2023-02-22T02:04:56.675Z,101031.28
2023-02-22T02:07:25.377Z,101032.88
2023-02-22T02:10:04.479Z,101035.72
2023-02-22T02:12:36.151Z,101034.72
2023-02-22T02:15:25.230Z,101029.69
2023-02-22T02:17:57.108Z,101033.88
2023-02-22T02:20:46.905Z,101030.00
2023-02-22T02:24:20.006Z,101031.66
2023-02-22T02:27:41.048Z,101031.66
2023-02-22T02:31:02.400Z,101036.91
2023-02-22T02:33:39.763Z,101031.66
2023-02-22T02:36:44.492Z,101026.03
2023-02-22T02:39:50.242Z,101030.91
2023-02-22T02:42:26.189Z,101022.41
2023-02-22T02:45:19.042Z,101022.66
2023-02-22T02:47:58.643Z,101022.56
2023-02-22T02:50:38.992Z,101022.19
2023-02-22T02:53:09.990Z,101023.94
2023-02-22T02:55:38.407Z,101023.09
2023-02-22T02:58:08.665Z,101015.94
2023-02-22T03:00:41.088Z,101019.38
2023-02-22T03:03:37.376Z,101013.56
2023-02-22T03:06:13.812Z,101018.75
2023-02-22T03:09:35.026Z,101018.34
2023-02-22T03:12:45.705Z,101010.63
2023-02-22T03:15:44.847Z,101006.03
2023-02-22T03:18:32.188Z,101010.63
2023-02-22T03:21:23.554Z,101005.16
2023-02-22T03:24:14.661Z,101012.09
2023-02-22T03:27:03.905Z,101006.88
2023-02-22T03:29:35.473Z,101003.44
2023-02-22T03:32:16.440Z,101010.09
2023-02-22T03:35:08.719Z,101006.97
2023-02-22T03:37:46.611Z,101004.13
2023-02-22T03:40:29.773Z,101012.44
2023-02-22T03:43:43.005Z,101010.47
2023-02-22T03:46:13.051Z,101021.06
2023-02-22T03:49:14.264Z,101018.81
2023-02-22T03:51:42.561Z,101024.94
2023-02-22T03:54:16.218Z,101017.09
2023-02-22T03:57:00.595Z,101020.75
2023-02-22T03:59:29.346Z,101023.47
2023-02-22T04:01:58.088Z,101013.75
2023-02-22T04:04:26.823Z,101021.28
2023-02-22T04:06:54.740Z,101024.97
2023-02-22T04:09:22.615Z,101026.00
2023-02-22T04:11:50.673Z,101023.47
2023-02-22T04:14:18.497Z,101027.31
2023-02-22T04:16:46.609Z,101028.84
2023-02-22T04:19:14.652Z,101027.09
2023-02-22T04:21:45.276Z,101026.75
2023-02-22T04:24:13.990Z,101027.66
2023-02-22T04:26:41.946Z,101028.44
2023-02-22T04:29:10.244Z,101027.69
2023-02-22T04:31:38.649Z,101018.47
2023-02-22T04:34:06.523Z,101018.00
2023-02-22T04:36:34.399Z,101021.63
2023-02-22T04:39:02.575Z,101017.78
2023-02-22T04:41:31.470Z,101017.69
2023-02-22T04:43:59.396Z,101017.63
2023-02-22T04:46:27.352Z,101014.31
2023-02-22T04:48:55.293Z,101011.84
2023-02-22T04:51:23.875Z,101007.19
2023-02-22T04:53:52.013Z,101015.41
2023-02-22T04:56:20.587Z,101015.91
2023-02-22T04:58:48.650Z,101011.72
2023-02-22T05:01:17.473Z,101007.38
2023-02-22T05:03:45.581Z,101010.56
2023-02-22T05:06:13.570Z,101011.16
2023-02-22T05:08:42.982Z,101011.41
2023-02-22T05:11:10.924Z,101014.94
2023-02-22T05:13:38.780Z,101015.44
2023-02-22T05:16:07.084Z,101012.06
2023-02-22T05:18:35.064Z,101004.88
2023-02-22T05:21:02.980Z,101001.09
2023-02-22T05:23:30.916Z,100997.16
2023-02-22T05:25:59.343Z,101000.28
2023-02-22T05:28:27.867Z,101003.38
2023-02-22T05:30:55.775Z,101004.25
2023-02-22T05:33:23.847Z,101003.19
2023-02-22T05:35:55.983Z,101006.41
2023-02-22T05:38:23.929Z,101005.38
2023-02-22T05:40:51.959Z,101006.41
2023-02-22T05:43:20.160Z,101004.06
2023-02-22T05:45:48.283Z,101002.50
2023-02-22T05:48:16.182Z,101008.13
2023-02-22T05:50:46.529Z,101010.13
2023-02-22T05:53:14.429Z,101013.56
2023-02-22T05:55:44.024Z,101009.38
2023-02-22T05:58:13.053Z,101019.00
2023-02-22T06:00:40.970Z,101024.94
2023-02-22T06:03:10.791Z,101019.59
2023-02-22T06:05:40.001Z,101025.72
2023-02-22T06:08:08.824Z,101026.66
2023-02-22T06:10:36.846Z,101023.25
2023-02-22T06:13:05.965Z,101022.72
2023-02-22T06:15:33.830Z,101022.66
2023-02-22T06:18:02.586Z,101027.63
2023-02-22T06:20:31.343Z,101023.34
2023-02-22T06:22:59.516Z,101031.06
2023-02-22T06:25:34.203Z,101033.94
2023-02-22T06:28:02.717Z,101035.38
2023-02-22T06:30:31.452Z,101036.09
2023-02-22T06:33:00.269Z,101042.09
2023-02-22T06:35:28.370Z,101038.72
2023-02-22T06:37:56.264Z,101034.53
2023-02-22T06:40:29.487Z,101047.97
2023-02-22T06:42:59.939Z,101046.28
2023-02-22T06:45:29.402Z,101055.09
2023-02-22T06:47:57.564Z,101057.28
2023-02-22T06:50:30.461Z,101053.25
2023-02-22T06:52:58.971Z,101058.88
2023-02-22T06:55:33.496Z,101057.88
2023-02-22T06:58:04.825Z,101062.91
2023-02-22T07:00:34.064Z,101063.81
2023-02-22T07:03:04.069Z,101068.09
2023-02-22T07:05:32.061Z,101065.94
2023-02-22T07:08:08.052Z,101063.09
2023-02-22T07:10:39.663Z,101059.22
2023-02-22T07:13:09.280Z,101073.34
2023-02-22T07:15:37.274Z,101075.69
2023-02-22T07:18:05.650Z,101069.84
2023-02-22T07:20:34.194Z,101069.13
2023-02-22T07:23:02.986Z,101065.25
2023-02-22T07:25:31.185Z,101063.56
2023-02-22T07:27:59.606Z,101070.78
2023-02-22T07:30:32.261Z,101060.81
2023-02-22T07:33:10.148Z,101068.72
2023-02-22T07:35:48.364Z,101069.25
2023-02-22T07:38:20.363Z,101074.19
2023-02-22T07:40:48.269Z,101068.72
2023-02-22T07:43:31.072Z,101072.78
2023-02-22T07:46:02.882Z,101076.50
2023-02-22T07:48:32.503Z,101075.81
2023-02-22T07:51:00.468Z,101080.31
2023-02-22T07:53:33.486Z,101070.03
2023-02-22T07:56:05.615Z,101070.19
2023-02-22T07:58:33.642Z,101079.59
2023-02-22T08:01:02.174Z,101073.22
2023-02-22T08:03:36.596Z,101075.78
2023-02-22T08:06:08.040Z,101076.19
2023-02-22T08:08:36.013Z,101072.91
2023-02-22T08:11:04.272Z,101076.94
2023-02-22T08:13:32.816Z,101075.00
2023-02-22T08:16:00.834Z,101082.16
2023-02-22T08:18:28.865Z,101077.63
2023-02-22T08:20:56.895Z,101071.94
2023-02-22T08:23:27.012Z,101084.00
2023-02-22T08:25:55.884Z,101081.00
2023-02-22T08:28:25.414Z,101073.34
2023-02-22T08:30:54.005Z,101080.84
2023-02-22T08:33:22.664Z,101073.03
2023-02-22T08:35:51.724Z,101081.56
2023-02-22T08:38:31.281Z,101078.09
2023-02-22T08:40:59.298Z,101080.56
2023-02-22T08:43:28.502Z,101079.84
2023-02-22T08:45:57.765Z,101078.81
2023-02-22T08:48:26.331Z,101077.13
2023-02-22T08:50:54.932Z,101077.81
2023-02-22T08:53:22.965Z,101079.72
2023-02-22T08:55:50.966Z,101085.13
2023-02-22T08:58:18.851Z,101080.03
2023-02-22T09:00:47.281Z,101077.41
2023-02-22T09:03:15.787Z,101078.28
2023-02-22T09:05:45.083Z,101078.03
2023-02-22T09:08:13.619Z,101075.69
2023-02-22T09:10:41.717Z,101081.41
2023-02-22T09:13:10.023Z,101080.69
2023-02-22T09:15:39.836Z,101079.03
2023-02-22T09:18:12.365Z,101081.31
2023-02-22T09:20:43.414Z,101077.16
2023-02-22T09:23:11.547Z,101084.31
2023-02-22T09:25:40.795Z,101085.84
2023-02-22T09:28:10.103Z,101076.72
2023-02-22T09:30:38.877Z,101082.03
2023-02-22T09:33:16.253Z,101082.13
2023-02-22T09:35:49.817Z,101080.16
2023-02-22T09:38:24.646Z,101078.44
2023-02-22T09:41:20.328Z,101083.50
2023-02-22T09:44:12.241Z,101074.66
2023-02-22T09:46:48.378Z,101077.13
2023-02-22T09:49:16.068Z,101071.59
2023-02-22T09:51:52.617Z,101067.88
2023-02-22T09:54:52.758Z,101069.47
2023-02-22T09:57:36.964Z,101059.91
2023-02-22T10:00:19.000Z,101061.81
2023-02-22T10:03:21.488Z,101061.00
2023-02-22T10:06:04.653Z,101055.63
2023-02-22T10:08:34.534Z,101057.97
2023-02-22T10:11:58.331Z,101061.69
2023-02-22T10:15:27.450Z,101054.72
2023-02-22T10:18:54.994Z,101053.94
2023-02-22T10:22:05.038Z,101045.75
2023-02-22T10:24:57.932Z,101047.81
2023-02-22T10:27:41.309Z,101049.03
2023-02-22T10:30:43.843Z,101055.28
2023-02-22T10:33:21.439Z,101047.72
2023-02-22T10:35:51.459Z,101050.34
2023-02-22T10:38:29.615Z,101042.78
2023-02-22T10:41:09.945Z,101048.38
2023-02-22T10:43:41.512Z,101047.03
2023-02-22T10:46:19.006Z,101049.41
2023-02-22T10:48:56.719Z,101041.19
2023-02-22T10:51:24.726Z,101046.38
2023-02-22T10:54:14.458Z,101037.44
2023-02-22T10:56:52.512Z,101036.28
2023-02-22T10:59:39.236Z,101042.75
2023-02-22T11:02:20.147Z,101036.47
2023-02-22T11:04:57.223Z,101039.19
2023-02-22T11:07:33.215Z,101036.25
2023-02-22T11:10:09.277Z,101034.34
2023-02-22T11:12:42.294Z,101038.78
2023-02-22T11:15:29.839Z,101032.56
2023-02-22T11:18:01.267Z,101028.22
2023-02-22T11:20:40.188Z,101031.34
2023-02-22T11:23:08.300Z,101025.63
2023-02-22T11:25:42.670Z,101028.47
2023-02-22T11:28:32.735Z,101022.75
2023-02-22T11:31:17.567Z,101021.31
2023-02-22T11:36:51.144Z,101023.88
2023-02-22T11:39:34.535Z,101017.41
2023-02-22T11:42:27.254Z,101010.25
2023-02-22T11:45:24.729Z,101005.78
2023-02-22T11:48:01.253Z,100996.31
2023-02-22T11:50:36.724Z,100998.22
2023-02-22T11:53:56.195Z,100996.31
2023-02-22T11:56:41.851Z,100988.13
2023-02-22T12:00:24.140Z,100982.69
2023-02-22T12:07:34.774Z,100978.53
2023-02-22T12:10:48.434Z,100988.91
2023-02-22T12:14:21.053Z,100972.94
2023-02-22T12:17:34.924Z,100977.47
2023-02-22T12:20:47.896Z,100983.66
2023-02-22T12:24:01.613Z,100979.16
2023-02-22T12:26:41.507Z,100974.66
2023-02-22T12:29:39.215Z,100976.88
2023-02-22T12:32:47.484Z,100972.84
2023-02-22T12:35:50.218Z,100977.88
2023-02-22T12:38:44.239Z,100966.56
2023-02-22T12:41:45.305Z,100968.53
2023-02-22T12:44:30.395Z,100968.78
2023-02-22T12:47:01.374Z,100971.63
2023-02-22T12:49:49.585Z,100971.44
2023-02-22T12:52:33.969Z,100971.94
2023-02-22T12:55:13.964Z,100973.06
2023-02-22T12:58:39.791Z,100975.03
2023-02-22T13:01:19.912Z,100968.84
2023-02-22T13:03:49.310Z,100976.97
2023-02-22T13:07:04.452Z,100976.72
2023-02-22T13:10:03.962Z,100969.50
2023-02-22T13:13:15.118Z,100970.09
2023-02-22T13:15:58.029Z,100968.84
2023-02-22T13:18:31.428Z,100963.16
2023-02-22T13:21:29.758Z,100959.34
2023-02-22T13:24:21.355Z,100958.38
2023-02-22T13:27:14.873Z,100952.91
2023-02-22T13:29:52.054Z,100955.25
2023-02-22T13:33:15.021Z,100942.25
2023-02-22T13:36:19.353Z,100948.03
2023-02-22T13:39:19.480Z,100949.00
2023-02-22T13:42:25.276Z,100951.59
2023-02-22T13:45:37.221Z,100944.81
2023-02-22T13:48:51.146Z,100946.47
2023-02-22T13:52:12.236Z,100952.94
2023-02-22T13:54:54.720Z,100945.25
2023-02-22T13:57:58.706Z,100948.16
2023-02-22T14:00:52.123Z,100941.34
2023-02-22T14:03:24.137Z,100944.06
2023-02-22T14:05:57.145Z,100942.91
2023-02-22T14:08:25.450Z,100933.22
2023-02-22T14:10:58.052Z,100935.28
2023-02-22T14:14:00.865Z,100938.69
2023-02-22T14:16:31.663Z,100935.13
2023-02-22T14:19:13.727Z,100931.94
2023-02-22T14:22:06.799Z,100928.69
2023-02-22T14:24:48.033Z,100933.66
2023-02-22T14:27:20.136Z,100928.28
2023-02-22T14:30:00.585Z,100927.66
2023-02-22T14:32:36.348Z,100925.91
2023-02-22T14:35:26.535Z,100926.16
2023-02-22T14:38:00.894Z,100919.59
2023-02-22T14:40:34.510Z,100920.09
2023-02-22T14:43:06.229Z,100917.75
2023-02-22T14:45:43.468Z,100918.75
2023-02-22T14:48:39.726Z,100914.56
2023-02-22T14:51:38.607Z,100914.69
2023-02-22T14:54:47.108Z,100904.53
2023-02-22T14:57:56.796Z,100914.38
2023-02-22T15:00:49.880Z,100911.69
2023-02-22T15:03:37.410Z,100912.19
2023-02-22T15:06:21.982Z,100904.31
2023-02-22T15:09:25.722Z,100907.50
2023-02-22T15:12:04.023Z,100903.47
2023-02-22T15:14:39.013Z,100897.16
2023-02-22T15:17:24.688Z,100901.41
2023-02-22T15:19:53.336Z,100898.13
2023-02-22T15:22:31.584Z,100898.72
2023-02-22T15:25:05.338Z,100903.03
2023-02-22T15:27:39.897Z,100901.38
2023-02-22T15:30:26.864Z,100895.88
2023-02-22T15:33:04.172Z,100901.94
2023-02-22T15:35:33.685Z,100901.22
2023-02-22T15:38:16.035Z,100902.03
2023-02-22T15:40:56.266Z,100901.03
2023-02-22T15:44:28.013Z,100896.09
2023-02-22T15:46:57.013Z,100894.41
2023-02-22T15:49:25.955Z,100902.50
2023-02-22T15:52:24.394Z,100897.03
2023-02-22T15:54:53.451Z,100893.47
2023-02-22T15:57:25.474Z,100898.78
2023-02-22T15:59:58.992Z,100895.19
2023-02-22T16:02:33.918Z,100893.00
2023-02-22T16:05:18.424Z,100895.41
2023-02-22T16:07:50.896Z,100884.75
2023-02-22T16:10:34.986Z,100891.19
2023-02-22T16:13:32.048Z,100889.19
2023-02-22T16:16:04.940Z,100883.50
2023-02-22T16:18:41.458Z,100882.66
2023-02-22T16:21:17.545Z,100883.53
2023-02-22T16:23:55.979Z,100887.63
2023-02-22T16:26:34.895Z,100886.56
2023-02-22T16:29:08.968Z,100884.91
2023-02-22T16:31:40.286Z,100880.91
2023-02-22T16:34:09.052Z,100886.28
2023-02-22T16:36:52.196Z,100890.78
2023-02-22T16:39:32.577Z,100885.84
2023-02-22T16:42:05.386Z,100878.19
2023-02-22T16:44:34.616Z,100874.22
2023-02-22T16:47:02.734Z,100876.56
2023-02-22T16:49:30.676Z,100884.22
2023-02-22T16:52:02.537Z,100885.00
2023-02-22T16:54:45.135Z,100878.03
2023-02-22T16:57:24.149Z,100882.66
2023-02-22T16:59:52.881Z,100882.00
2023-02-22T17:02:21.792Z,100874.06
2023-02-22T17:04:49.792Z,100879.41
2023-02-22T17:07:31.437Z,100882.31
2023-02-22T17:09:59.696Z,100875.69
2023-02-22T17:12:29.813Z,100872.19
2023-02-22T17:14:57.816Z,100876.63
2023-02-22T17:17:26.417Z,100879.91
2023-02-22T17:19:54.984Z,100878.97
2023-02-22T17:22:23.508Z,100872.44
2023-02-22T17:24:51.396Z,100873.59
2023-02-22T17:27:19.446Z,100870.06
2023-02-22T17:29:48.423Z,100869.41
2023-02-22T17:32:16.466Z,100872.72
2023-02-22T17:34:44.316Z,100867.03
2023-02-22T17:37:12.286Z,100869.91
2023-02-22T17:39:40.402Z,100875.13
2023-02-22T17:42:08.320Z,100873.44
2023-02-22T17:44:36.538Z,100869.78
2023-02-22T17:47:04.459Z,100877.53
2023-02-22T17:49:32.333Z,100873.78
2023-02-22T17:52:02.670Z,100871.25
2023-02-22T17:54:30.555Z,100873.06
2023-02-22T17:56:58.390Z,100874.75
2023-02-22T17:59:27.273Z,100866.59
2023-02-22T18:01:56.710Z,100863.94
2023-02-22T18:04:24.600Z,100867.66
2023-02-22T18:06:52.618Z,100872.38
2023-02-22T18:09:20.545Z,100869.63
2023-02-22T18:11:48.461Z,100875.03
2023-02-22T18:14:16.349Z,100865.66
2023-02-22T18:16:46.720Z,100869.47
2023-02-22T18:19:20.431Z,100867.59
2023-02-22T18:21:49.916Z,100865.44
2023-02-22T18:24:18.433Z,100866.72
2023-02-22T18:26:46.307Z,100867.25
2023-02-22T18:29:14.168Z,100864.47
2023-02-22T18:31:45.197Z,100863.47
2023-02-22T18:34:13.141Z,100869.31
2023-02-22T18:36:41.038Z,100864.38
2023-02-22T18:39:11.695Z,100860.84
2023-02-22T18:41:39.930Z,100864.72
2023-02-22T18:44:10.383Z,100859.41
2023-02-22T18:46:38.359Z,100860.16
2023-02-22T18:49:07.380Z,100857.75
2023-02-22T18:51:35.728Z,100858.25
2023-02-22T18:54:03.722Z,100856.50
2023-02-22T18:56:31.805Z,100859.00
2023-02-22T18:59:03.949Z,100856.13
2023-02-22T19:01:38.507Z,100854.44
2023-02-22T19:04:12.530Z,100865.03
2023-02-22T19:06:42.965Z,100856.00
2023-02-22T19:09:10.762Z,100851.00
2023-02-22T19:11:44.539Z,100854.63
2023-02-22T19:14:13.797Z,100851.31
2023-02-22T19:16:44.808Z,100855.16
2023-02-22T19:19:16.785Z,100859.66
2023-02-22T19:21:44.590Z,100853.97
2023-02-22T19:24:13.152Z,100856.94
2023-02-22T19:26:50.163Z,100851.25
2023-02-22T19:29:22.040Z,100858.31
2023-02-22T19:31:51.922Z,100857.03
2023-02-22T19:34:23.807Z,100850.78
2023-02-22T19:36:51.770Z,100855.31
2023-02-22T19:39:20.886Z,100850.69
2023-02-22T19:41:48.833Z,100857.38
2023-02-22T19:44:16.682Z,100859.63
2023-02-22T19:46:46.201Z,100858.16
2023-02-22T19:49:16.033Z,100859.22
2023-02-22T19:51:44.146Z,100857.13
2023-02-22T19:54:19.440Z,100858.75
2023-02-22T19:56:50.978Z,100860.38
2023-02-22T19:59:22.901Z,100866.53
2023-02-22T20:01:55.037Z,100859.94
2023-02-22T20:04:24.232Z,100856.53
2023-02-22T20:06:55.187Z,100861.88
2023-02-22T20:09:30.220Z,100865.25
2023-02-22T20:11:58.151Z,100868.16
2023-02-22T20:14:28.349Z,100867.00
2023-02-22T20:16:58.479Z,100863.94
2023-02-22T20:19:27.704Z,100863.66
2023-02-22T20:21:56.576Z,100864.22
2023-02-22T20:24:25.210Z,100868.41
2023-02-22T20:26:55.780Z,100860.59
2023-02-22T20:29:29.563Z,100860.38
2023-02-22T20:32:02.958Z,100853.63
2023-02-22T20:34:34.865Z,100861.72
2023-02-22T20:37:04.795Z,100860.72
2023-02-22T20:39:32.900Z,100860.19
2023-02-22T20:42:00.841Z,100861.22
2023-02-22T20:44:28.804Z,100863.38
2023-02-22T20:46:56.747Z,100863.63
2023-02-22T20:49:27.261Z,100859.13
2023-02-22T20:51:55.110Z,100861.34
2023-02-22T20:54:22.961Z,100860.19
2023-02-22T20:56:52.905Z,100858.81
2023-02-22T20:59:21.746Z,100858.06
2023-02-22T21:01:50.252Z,100858.06
2023-02-22T21:04:18.781Z,100857.22
2023-02-22T21:06:46.625Z,100847.47
2023-02-22T21:09:19.114Z,100852.66
2023-02-22T21:11:47.689Z,100847.81
2023-02-22T21:14:19.074Z,100847.66
2023-02-22T21:16:50.977Z,100847.09
2023-02-22T21:19:26.188Z,100852.03
2023-02-22T21:21:57.928Z,100859.19
2023-02-22T21:24:28.116Z,100847.53
2023-02-22T21:26:58.822Z,100850.28
2023-02-22T21:29:29.041Z,100847.75
2023-02-22T21:31:57.202Z,100854.00
2023-02-22T21:34:25.738Z,100858.09
2023-02-22T21:36:54.063Z,100850.00
2023-02-22T21:39:22.705Z,100849.00
2023-02-22T21:41:52.123Z,100848.25
2023-02-22T21:44:20.741Z,100849.81
2023-02-22T21:46:49.895Z,100846.72
2023-02-22T21:49:22.671Z,100840.56
2023-02-22T21:51:52.435Z,100844.38
2023-02-22T21:54:20.670Z,100842.44
2023-02-22T21:56:48.883Z,100838.88
2023-02-22T21:59:20.872Z,100849.06
2023-02-22T22:01:55.835Z,100842.25
2023-02-22T22:04:29.011Z,100838.63
2023-02-22T22:07:00.080Z,100830.88
2023-02-22T22:09:32.641Z,100830.56
2023-02-22T22:12:05.133Z,100830.81
2023-02-22T22:14:35.657Z,100826.03
2023-02-22T22:17:07.004Z,100821.28
2023-02-22T22:19:41.596Z,100826.06
2023-02-22T22:22:10.775Z,100818.72
2023-02-22T22:24:41.637Z,100815.84
2023-02-22T22:27:12.736Z,100812.94
2023-02-22T22:29:40.698Z,100811.09
2023-02-22T22:32:08.995Z,100807.19
2023-02-22T22:34:37.804Z,100801.63
2023-02-22T22:37:05.815Z,100809.19
2023-02-22T22:39:33.735Z,100804.13
2023-02-22T22:42:01.875Z,100802.47
2023-02-22T22:44:32.517Z,100803.56
2023-02-22T22:47:00.996Z,100810.19
2023-02-22T22:49:31.185Z,100807.72
2023-02-22T22:51:59.321Z,100802.56
2023-02-22T22:54:27.238Z,100803.78
2023-02-22T22:56:55.078Z,100801.63
2023-02-22T22:59:22.941Z,100799.28
2023-02-22T23:01:52.172Z,100793.75
2023-02-22T23:04:21.399Z,100797.19
2023-02-22T23:06:52.872Z,100794.81
2023-02-22T23:09:31.492Z,100798.44
2023-02-22T23:12:09.791Z,100794.22
2023-02-22T23:14:43.966Z,100798.13
2023-02-22T23:17:16.189Z,100792.69
2023-02-22T23:19:45.445Z,100791.44
2023-02-22T23:22:14.158Z,100794.13
2023-02-22T23:24:44.383Z,100794.59
2023-02-22T23:27:12.619Z,100786.03
2023-02-22T23:29:42.503Z,100792.09
2023-02-22T23:32:10.881Z,100793.44
2023-02-22T23:34:41.481Z,100794.28
2023-02-22T23:37:10.332Z,100790.88
2023-02-22T23:39:38.692Z,100789.25
2023-02-22T23:42:09.097Z,100789.56
2023-02-22T23:44:36.996Z,100790.41
2023-02-22T23:47:04.900Z,100786.00
2023-02-22T23:49:36.015Z,100789.41
2023-02-22T23:52:06.356Z,100777.47
2023-02-22T23:54:36.620Z,100781.50
2023-02-22T23:57:06.358Z,100776.78
2023-02-22T23:59:34.914Z,100778.50
